Aviation Digital Data Service (ADDS)

Output produced by METARs form (0430 UTC 22 September 2017)
found at http://www.aviationweather.gov/adds/metars/
 
SEGU 212230Z 2200/2224 22010KT 9999 SCT026 SCT100 
     FM220600 24010KT 9999 FEW030 BKN100 
     FM221700 16005KT 9999 SCT026 SCT100 TX30/2220Z TN21/2210Z
       
SELT 212230Z 2200/2224 18010KT 9999 FEW030 
     BECMG 2204/2206 01004KT 
     FM221200 18012KT 9999 FEW030 
     FM221800 18015KT 9999 SCT030 TX22/2219Z TN02/2211Z
       
SEMT 212230Z 2200/2224 20010KT 9999 BKN023 
     FM220800 20008KT 9999 OVC030 
     FM221800 27012KT 9999 SCT020 TX28/2220Z TN22/2210Z
       
SEQM 212230Z 2200/2224 04004KT 9999 FEW040 
     TEMPO 2207/2210 5000 BCFG FEW005 SCT010 
     FM221200 VRB03KT 9999 FEW033 
     FM221800 36012KT 9999 SCT040 TX26/2219Z TN06/2211Z